createdAt,value
2023-02-12T00:01:27.002Z,79.65
2023-02-12T00:03:53.600Z,77.50
2023-02-12T00:06:20.353Z,91.25
2023-02-12T00:08:51.294Z,81.57
2023-02-12T00:11:23.430Z,81.18
2023-02-12T00:13:50.122Z,85.05
2023-02-12T00:16:20.258Z,77.15
2023-02-12T00:18:47.269Z,79.32
2023-02-12T00:21:14.710Z,78.10
2023-02-12T00:23:41.152Z,78.18
2023-02-12T00:26:09.408Z,78.45
2023-02-12T00:28:36.542Z,79.63
2023-02-12T00:31:27.098Z,77.45
2023-02-12T00:33:53.758Z,82.60
2023-02-12T00:36:25.927Z,78.88
2023-02-12T00:38:54.500Z,81.75
2023-02-12T00:41:22.374Z,80.63
2023-02-12T00:43:49.296Z,75.18
2023-02-12T00:46:15.998Z,77.25
2023-02-12T00:48:42.769Z,73.80
2023-02-12T00:51:09.425Z,76.28
2023-02-12T00:53:36.964Z,79.10
2023-02-12T00:56:04.042Z,81.93
2023-02-12T00:58:30.462Z,77.50
2023-02-12T01:00:57.229Z,76.40
2023-02-12T01:03:23.905Z,80.68
2023-02-12T01:05:50.450Z,85.75
2023-02-12T01:08:17.276Z,77.93
2023-02-12T01:10:44.336Z,85.57
2023-02-12T01:13:14.919Z,83.47
2023-02-12T01:15:42.136Z,79.97
2023-02-12T01:18:08.985Z,73.95
2023-02-12T01:20:35.560Z,77.40
2023-02-12T01:23:02.099Z,83.18
2023-02-12T01:25:28.668Z,80.82
2023-02-12T01:27:55.479Z,81.18
2023-02-12T01:30:24.104Z,76.05
2023-02-12T01:32:50.579Z,84.38
2023-02-12T01:35:17.379Z,78.25
2023-02-12T01:37:43.848Z,78.00
2023-02-12T01:40:15.956Z,83.63
2023-02-12T01:42:42.447Z,77.25
2023-02-12T01:45:14.687Z,78.72
2023-02-12T01:47:43.608Z,74.43
2023-02-12T01:50:17.492Z,81.60
2023-02-12T01:52:48.811Z,80.95
2023-02-12T01:55:15.768Z,79.50
2023-02-12T01:57:44.905Z,75.93
2023-02-12T02:00:16.432Z,81.45
2023-02-12T02:02:46.223Z,79.20
2023-02-12T02:05:18.379Z,80.22
2023-02-12T02:07:45.483Z,77.72
2023-02-12T02:10:12.446Z,80.45
2023-02-12T02:12:58.355Z,82.72
2023-02-12T02:15:29.176Z,83.03
2023-02-12T02:18:24.762Z,79.90
2023-02-12T02:21:06.146Z,83.53
2023-02-12T02:24:02.305Z,78.40
2023-02-12T02:26:40.812Z,75.32
2023-02-12T02:29:43.024Z,78.68
2023-02-12T02:32:24.545Z,81.50
2023-02-12T02:35:15.737Z,82.00
2023-02-12T02:37:51.219Z,77.05
2023-02-12T02:40:19.657Z,72.65
2023-02-12T02:43:07.335Z,75.10
2023-02-12T02:45:40.274Z,72.85
2023-02-12T02:48:22.294Z,72.75
2023-02-12T02:50:55.246Z,75.93
2023-02-12T02:53:31.549Z,68.85
2023-02-12T02:56:01.829Z,71.38
2023-02-12T02:58:51.269Z,74.95
2023-02-12T03:01:36.516Z,74.63
2023-02-12T03:04:14.726Z,77.38
2023-02-12T03:06:47.031Z,70.22
2023-02-12T03:09:22.343Z,70.10
2023-02-12T03:11:50.779Z,74.22
2023-02-12T03:14:23.570Z,79.47
2023-02-12T03:16:59.888Z,70.85
2023-02-12T03:19:32.216Z,73.43
2023-02-12T03:22:01.855Z,70.70
2023-02-12T03:24:51.119Z,79.00
2023-02-12T03:29:49.539Z,76.22
2023-02-12T03:32:24.257Z,77.03
2023-02-12T03:34:59.759Z,72.00
2023-02-12T03:37:38.324Z,72.65
2023-02-12T03:40:28.470Z,77.55
2023-02-12T03:43:30.278Z,71.75
2023-02-12T03:46:05.789Z,67.38
2023-02-12T03:48:32.215Z,70.85
2023-02-12T03:51:05.163Z,68.50
2023-02-12T03:53:32.377Z,65.72
2023-02-12T03:56:28.361Z,71.80
2023-02-12T03:58:54.862Z,66.72
2023-02-12T04:01:21.633Z,65.90
2023-02-12T04:03:48.477Z,74.10
2023-02-12T04:06:29.022Z,73.88
2023-02-12T04:08:58.992Z,70.65
2023-02-12T04:11:54.222Z,68.15
2023-02-12T04:14:39.767Z,70.25
2023-02-12T04:17:15.337Z,64.90
2023-02-12T04:20:04.060Z,68.20
2023-02-12T04:22:45.454Z,66.72
2023-02-12T04:25:22.858Z,71.22
2023-02-12T04:28:15.684Z,67.57
2023-02-12T04:31:15.420Z,73.63
2023-02-12T04:34:10.783Z,69.97
2023-02-12T04:36:45.719Z,71.80
2023-02-12T04:39:19.117Z,69.00
2023-02-12T04:41:45.519Z,73.13
2023-02-12T04:44:24.138Z,68.47
2023-02-12T04:46:51.245Z,69.65
2023-02-12T04:49:20.303Z,68.00
2023-02-12T04:51:48.034Z,68.00
2023-02-12T04:54:16.036Z,70.15
2023-02-12T04:56:42.593Z,71.03
2023-02-12T04:59:09.458Z,68.82
2023-02-12T05:01:37.540Z,63.80
2023-02-12T05:04:05.444Z,65.78
2023-02-12T05:06:35.510Z,68.13
2023-02-12T05:09:02.024Z,68.90
2023-02-12T05:11:28.486Z,64.13
2023-02-12T05:13:55.006Z,65.00
2023-02-12T05:16:22.074Z,70.22
2023-02-12T05:18:48.906Z,66.60
2023-02-12T05:21:15.871Z,65.80
2023-02-12T05:23:42.783Z,67.20
2023-02-12T05:26:15.544Z,69.25
2023-02-12T05:28:42.208Z,65.05
2023-02-12T05:31:12.909Z,62.38
2023-02-12T05:33:42.658Z,63.60
2023-02-12T05:36:20.324Z,65.93
2023-02-12T05:38:47.316Z,64.25
2023-02-12T05:41:16.843Z,59.97
2023-02-12T05:43:44.749Z,62.78
2023-02-12T05:46:13.320Z,58.95
2023-02-12T05:48:40.281Z,61.80
2023-02-12T05:51:10.362Z,64.22
2023-02-12T05:53:37.997Z,67.38
2023-02-12T05:56:16.499Z,60.80
2023-02-12T05:58:46.158Z,66.43
2023-02-12T06:01:22.369Z,63.25
2023-02-12T06:03:48.987Z,62.08
2023-02-12T06:06:15.443Z,62.20
2023-02-12T06:08:42.110Z,63.42
2023-02-12T06:11:12.866Z,63.08
2023-02-12T06:13:39.367Z,62.67
2023-02-12T06:16:06.460Z,60.83
2023-02-12T06:18:35.651Z,60.88
2023-02-12T06:21:04.430Z,59.50
2023-02-12T06:23:30.850Z,59.80
2023-02-12T06:25:57.781Z,58.47
2023-02-12T06:28:24.680Z,64.13
2023-02-12T06:30:51.420Z,63.20
2023-02-12T06:33:18.034Z,58.83
2023-02-12T06:35:44.604Z,60.85
2023-02-12T06:38:11.210Z,61.47
2023-02-12T06:40:37.679Z,59.45
2023-02-12T06:43:07.412Z,62.00
2023-02-12T06:45:34.221Z,62.05
2023-02-12T06:48:00.707Z,61.35
2023-02-12T06:50:27.395Z,67.55
2023-02-12T06:52:53.927Z,59.63
2023-02-12T06:55:20.628Z,60.35
2023-02-12T06:57:47.157Z,55.85
2023-02-12T07:00:13.900Z,64.78
2023-02-12T07:02:40.376Z,60.80
2023-02-12T07:05:07.055Z,63.80
2023-02-12T07:07:33.633Z,61.22
2023-02-12T07:10:00.157Z,57.47
2023-02-12T07:12:26.599Z,55.22
2023-02-12T07:14:53.025Z,56.00
2023-02-12T07:17:19.473Z,54.67
2023-02-12T07:19:45.907Z,54.80
2023-02-12T07:22:12.411Z,59.90
2023-02-12T07:24:39.245Z,58.22
2023-02-12T07:27:05.756Z,58.22
2023-02-12T07:29:32.449Z,62.15
2023-02-12T07:31:59.064Z,61.40
2023-02-12T07:34:25.584Z,61.40
2023-02-12T07:36:52.015Z,58.67
2023-02-12T07:39:18.504Z,60.78
2023-02-12T07:41:44.924Z,60.28
2023-02-12T07:44:12.490Z,55.50
2023-02-12T07:46:48.012Z,65.90
2023-02-12T07:49:30.078Z,55.22
2023-02-12T07:51:59.739Z,61.95
2023-02-12T07:54:26.481Z,58.65
2023-02-12T07:56:52.950Z,54.55
2023-02-12T07:59:19.713Z,60.85
2023-02-12T08:01:49.002Z,60.72
2023-02-12T08:04:18.132Z,59.97
2023-02-12T08:06:46.765Z,60.67
2023-02-12T08:09:16.661Z,60.13
2023-02-12T08:11:44.361Z,59.60
2023-02-12T08:14:13.445Z,59.28
2023-02-12T08:16:42.104Z,59.67
2023-02-12T08:19:18.716Z,47.38
2023-02-12T08:21:48.897Z,61.97
2023-02-12T08:26:42.364Z,62.20
2023-02-12T08:29:13.011Z,62.53
2023-02-12T08:31:45.394Z,63.35
2023-02-12T08:34:16.332Z,63.90
2023-02-12T08:36:44.175Z,57.63
2023-02-12T08:39:11.235Z,65.82
2023-02-12T08:41:38.050Z,64.18
2023-02-12T08:44:05.625Z,62.35
2023-02-12T08:46:35.354Z,59.55
2023-02-12T08:49:09.415Z,64.40
2023-02-12T08:51:36.478Z,60.17
2023-02-12T08:54:05.869Z,62.80
2023-02-12T08:59:01.441Z,62.65
2023-02-12T09:01:31.718Z,51.28
2023-02-12T09:03:58.803Z,60.53
2023-02-12T09:06:26.732Z,62.30
2023-02-12T09:08:54.471Z,66.65
2023-02-12T09:11:32.363Z,66.60
2023-02-12T09:14:02.229Z,68.65
2023-02-12T09:16:30.792Z,62.53
2023-02-12T09:18:59.045Z,67.00
2023-02-12T09:21:26.174Z,60.00
2023-02-12T09:23:52.929Z,66.35
2023-02-12T09:26:22.210Z,71.18
2023-02-12T09:28:50.562Z,68.63
2023-02-12T09:31:30.870Z,69.25
2023-02-12T09:34:03.164Z,68.95
2023-02-12T09:36:30.338Z,71.15
2023-02-12T09:38:59.169Z,82.38
2023-02-12T09:41:38.985Z,74.00
2023-02-12T09:44:24.355Z,76.82
2023-02-12T09:47:05.581Z,72.68
2023-02-12T09:49:44.181Z,71.75
2023-02-12T09:52:30.563Z,72.05
2023-02-12T09:55:17.103Z,81.88
2023-02-12T09:58:10.329Z,82.00
2023-02-12T10:00:37.464Z,73.22
2023-02-12T10:03:14.508Z,73.45
2023-02-12T10:06:25.380Z,79.70
2023-02-12T10:09:45.399Z,83.68
2023-02-12T10:12:28.662Z,82.18
2023-02-12T10:15:10.508Z,90.30
2023-02-12T10:17:53.065Z,92.22
2023-02-12T10:20:55.205Z,86.82
2023-02-12T10:23:27.797Z,78.63
2023-02-12T10:25:58.517Z,80.90
2023-02-12T10:28:40.593Z,83.75
2023-02-12T10:31:25.178Z,79.75
2023-02-12T10:33:52.591Z,88.47
2023-02-12T10:36:48.142Z,78.07
2023-02-12T10:39:41.242Z,79.30
2023-02-12T10:42:18.373Z,78.10
2023-02-12T10:44:45.103Z,74.70
2023-02-12T10:47:23.930Z,72.22
2023-02-12T10:49:56.381Z,75.25
2023-02-12T10:52:56.800Z,75.85
2023-02-12T10:55:27.827Z,71.68
2023-02-12T10:57:55.059Z,70.88
2023-02-12T11:00:31.935Z,72.13
2023-02-12T11:03:13.615Z,77.45
2023-02-12T11:05:42.752Z,73.13
2023-02-12T11:08:28.957Z,74.72
2023-02-12T11:10:55.568Z,79.38
2023-02-12T11:13:27.005Z,77.75
2023-02-12T11:15:54.161Z,69.88
2023-02-12T11:18:26.175Z,68.00
2023-02-12T11:20:57.290Z,71.40
2023-02-12T11:23:27.885Z,67.20
2023-02-12T11:26:06.187Z,65.07
2023-02-12T11:28:35.956Z,62.50
2023-02-12T11:31:21.537Z,61.17
2023-02-12T11:34:07.246Z,58.30
2023-02-12T11:36:37.073Z,60.08
2023-02-12T11:39:04.547Z,56.03
2023-02-12T11:41:37.875Z,57.50
2023-02-12T11:44:17.555Z,58.88
2023-02-12T11:46:55.457Z,60.00
2023-02-12T11:49:32.202Z,61.15
2023-02-12T11:52:02.153Z,63.25
2023-02-12T11:54:32.773Z,57.08
2023-02-12T11:56:59.258Z,59.50
2023-02-12T11:59:36.295Z,59.58
2023-02-12T12:02:30.281Z,58.35
2023-02-12T12:05:14.734Z,59.63
2023-02-12T12:07:48.769Z,62.08
2023-02-12T12:10:36.568Z,57.00
2023-02-12T12:13:10.067Z,60.15
2023-02-12T12:16:03.389Z,53.80
2023-02-12T12:19:07.031Z,52.90
2023-02-12T12:21:58.760Z,49.58
2023-02-12T12:24:50.210Z,49.22
2023-02-12T12:28:05.706Z,51.22
2023-02-12T12:30:44.775Z,51.40
2023-02-12T12:33:23.137Z,54.85
2023-02-12T12:36:31.252Z,53.70
2023-02-12T12:39:18.322Z,51.53
2023-02-12T12:42:22.531Z,59.78
2023-02-12T12:45:17.141Z,55.92
2023-02-12T12:48:05.200Z,55.83
2023-02-12T12:50:50.494Z,49.88
2023-02-12T12:53:45.247Z,49.63
2023-02-12T12:56:28.676Z,41.95
2023-02-12T12:59:42.839Z,38.28
2023-02-12T13:02:27.588Z,44.42
2023-02-12T13:05:06.322Z,42.35
2023-02-12T13:07:57.466Z,44.90
2023-02-12T13:10:32.973Z,40.75
2023-02-12T13:13:16.258Z,39.17
2023-02-12T13:15:52.714Z,37.45
2023-02-12T13:18:46.789Z,38.67
2023-02-12T13:21:45.960Z,38.38
2023-02-12T13:24:38.794Z,38.28
2023-02-12T13:27:26.827Z,34.97
2023-02-12T13:29:59.464Z,38.25
2023-02-12T13:32:30.044Z,33.03
2023-02-12T13:34:58.844Z,39.30
2023-02-12T13:37:41.780Z,39.97
2023-02-12T13:40:14.663Z,38.08
2023-02-12T13:43:04.951Z,39.95
2023-02-12T13:45:44.585Z,43.72
2023-02-12T13:48:40.044Z,39.53
2023-02-12T13:51:27.864Z,36.58
2023-02-12T13:53:57.166Z,37.78
2023-02-12T13:56:43.902Z,39.00
2023-02-12T13:59:32.669Z,40.97
2023-02-12T14:02:02.144Z,31.27
2023-02-12T14:07:06.519Z,38.40
2023-02-12T14:09:38.095Z,38.88
2023-02-12T14:12:17.341Z,43.92
2023-02-12T14:14:47.609Z,39.83
2023-02-12T14:17:29.108Z,40.88
2023-02-12T14:20:05.101Z,42.33
2023-02-12T14:22:31.469Z,42.53
2023-02-12T14:24:59.142Z,40.80
2023-02-12T14:27:41.871Z,40.33
2023-02-12T14:30:11.220Z,38.45
2023-02-12T14:32:57.280Z,36.92
2023-02-12T14:35:26.582Z,37.55
2023-02-12T14:37:54.709Z,38.25
2023-02-12T14:40:33.096Z,36.08
2023-02-12T14:43:01.691Z,31.98
2023-02-12T14:45:36.312Z,33.07
2023-02-12T14:48:04.761Z,36.60
2023-02-12T14:50:39.174Z,36.13
2023-02-12T14:53:23.775Z,34.33
2023-02-12T14:55:51.466Z,34.53
2023-02-12T14:58:22.322Z,34.03
2023-02-12T15:00:55.920Z,35.58
2023-02-12T15:03:28.931Z,39.53
2023-02-12T15:06:04.013Z,35.35
2023-02-12T15:08:45.685Z,35.55
2023-02-12T15:11:21.174Z,37.00
2023-02-12T15:14:08.580Z,35.05
2023-02-12T15:17:00.050Z,34.65
2023-02-12T15:19:50.565Z,32.53
2023-02-12T15:22:21.911Z,34.53
2023-02-12T15:24:49.169Z,31.88
2023-02-12T15:27:17.106Z,31.70
2023-02-12T15:29:47.247Z,39.40
2023-02-12T15:32:25.415Z,37.83
2023-02-12T15:34:53.226Z,39.50
2023-02-12T15:37:27.037Z,35.58
2023-02-12T15:39:57.132Z,32.13
2023-02-12T15:42:38.317Z,35.50
2023-02-12T15:45:22.903Z,30.85
2023-02-12T15:48:02.495Z,32.80
2023-02-12T15:50:30.826Z,32.33
2023-02-12T15:52:57.666Z,32.00
2023-02-12T15:55:27.347Z,30.48
2023-02-12T15:57:56.848Z,31.90
2023-02-12T16:03:27.390Z,34.83
2023-02-12T16:06:00.813Z,33.60
2023-02-12T16:08:28.413Z,33.00
2023-02-12T16:10:56.218Z,32.58
2023-02-12T16:13:30.330Z,31.15
2023-02-12T16:16:17.377Z,35.22
2023-02-12T16:18:44.286Z,36.30
2023-02-12T16:21:28.991Z,34.83
2023-02-12T16:23:55.564Z,31.77
2023-02-12T16:26:26.951Z,31.23
2023-02-12T16:28:57.046Z,30.45
2023-02-12T16:31:27.474Z,32.90
2023-02-12T16:33:59.505Z,50.03
2023-02-12T16:36:25.959Z,28.73
2023-02-12T16:38:54.839Z,31.17
2023-02-12T16:41:52.990Z,32.25
2023-02-12T16:44:26.350Z,29.45
2023-02-12T16:46:59.279Z,29.63
2023-02-12T16:49:26.880Z,35.03
2023-02-12T16:51:54.062Z,31.00
2023-02-12T16:54:31.212Z,28.77
2023-02-12T16:56:58.457Z,29.02
2023-02-12T16:59:25.005Z,28.45
2023-02-12T17:01:57.348Z,29.92
2023-02-12T17:04:23.763Z,27.50
2023-02-12T17:06:50.196Z,29.27
2023-02-12T17:09:16.681Z,25.30
2023-02-12T17:11:43.144Z,28.08
2023-02-12T17:14:14.898Z,27.13
2023-02-12T17:16:41.522Z,25.63
2023-02-12T17:19:08.018Z,28.65
2023-02-12T17:21:40.124Z,26.85
2023-02-12T17:24:28.036Z,27.15
2023-02-12T17:26:54.764Z,25.92
2023-02-12T17:29:23.648Z,23.95
2023-02-12T17:31:53.439Z,24.45
2023-02-12T17:34:20.220Z,24.70
2023-02-12T17:36:46.732Z,23.60
2023-02-12T17:39:14.898Z,24.52
2023-02-12T17:41:41.524Z,21.75
2023-02-12T17:44:08.274Z,25.65
2023-02-12T17:46:34.812Z,23.17
2023-02-12T17:49:01.404Z,22.58
2023-02-12T17:51:27.932Z,22.17
2023-02-12T17:53:54.590Z,24.17
2023-02-12T17:56:25.430Z,20.70
2023-02-12T17:58:52.459Z,21.73
2023-02-12T18:01:21.511Z,21.83
2023-02-12T18:03:48.056Z,21.75
2023-02-12T18:06:20.812Z,21.35
2023-02-12T18:08:47.234Z,21.00
2023-02-12T18:11:14.544Z,22.05
2023-02-12T18:13:42.495Z,20.00
2023-02-12T18:16:10.142Z,21.35
2023-02-12T18:18:38.209Z,23.48
2023-02-12T18:21:14.041Z,23.98
2023-02-12T18:23:40.781Z,23.83
2023-02-12T18:26:12.789Z,23.42
2023-02-12T18:28:39.979Z,24.95
2023-02-12T18:31:07.305Z,31.33
2023-02-12T18:33:34.386Z,44.60
2023-02-12T18:36:02.075Z,28.20
2023-02-12T18:38:29.095Z,25.27
2023-02-12T18:40:56.615Z,26.35
2023-02-12T18:43:24.727Z,25.50
2023-02-12T18:45:51.411Z,27.00
2023-02-12T18:48:18.083Z,26.45
2023-02-12T18:50:44.654Z,25.77
2023-02-12T18:53:11.335Z,24.77
2023-02-12T18:55:40.488Z,22.02
2023-02-12T18:58:06.928Z,23.58
2023-02-12T19:00:33.409Z,25.90
2023-02-12T19:02:59.995Z,25.60
2023-02-12T19:05:26.729Z,26.58
2023-02-12T19:07:53.673Z,24.40
2023-02-12T19:10:20.250Z,31.02
2023-02-12T19:12:46.898Z,27.90
2023-02-12T19:15:13.342Z,29.05
2023-02-12T19:17:39.821Z,27.40
2023-02-12T19:20:06.969Z,27.80
2023-02-12T19:22:33.588Z,25.40
2023-02-12T19:25:00.099Z,24.13
2023-02-12T19:27:26.618Z,25.45
2023-02-12T19:29:53.279Z,24.38
2023-02-12T19:32:19.785Z,26.85
2023-02-12T19:34:46.301Z,27.85
2023-02-12T19:37:13.776Z,27.15
2023-02-12T19:39:40.802Z,28.50
2023-02-12T19:42:07.370Z,28.70
2023-02-12T19:44:33.833Z,28.15
2023-02-12T19:47:00.569Z,28.85
2023-02-12T19:49:28.533Z,28.45
2023-02-12T19:51:55.246Z,29.35
2023-02-12T19:54:23.222Z,32.83
2023-02-12T19:56:49.945Z,30.20
2023-02-12T19:59:19.365Z,27.98
2023-02-12T20:04:15.770Z,28.67
2023-02-12T20:06:43.674Z,29.48
2023-02-12T20:09:11.427Z,28.50
2023-02-12T20:11:39.114Z,26.75
2023-02-12T20:14:07.603Z,25.45
2023-02-12T20:16:38.145Z,27.63
2023-02-12T20:19:11.226Z,25.27
2023-02-12T20:21:38.345Z,26.92
2023-02-12T20:24:05.110Z,25.95
2023-02-12T20:26:33.167Z,23.40
2023-02-12T20:29:02.802Z,23.52
2023-02-12T20:31:32.534Z,22.95
2023-02-12T20:34:04.223Z,23.67
2023-02-12T20:36:33.962Z,26.70
2023-02-12T20:39:01.055Z,22.98
2023-02-12T20:41:27.933Z,22.63
2023-02-12T20:43:55.143Z,23.27
2023-02-12T20:46:23.757Z,22.63
2023-02-12T20:48:50.486Z,25.33
2023-02-12T20:51:19.996Z,24.25
2023-02-12T20:56:16.702Z,21.50
2023-02-12T20:58:44.904Z,20.42
2023-02-12T21:01:22.957Z,22.23
2023-02-12T21:03:51.293Z,23.58
2023-02-12T21:06:19.547Z,22.63
2023-02-12T21:08:46.279Z,22.38
2023-02-12T21:11:19.442Z,21.38
2023-02-12T21:14:02.184Z,18.55
2023-02-12T21:16:35.714Z,19.67
2023-02-12T21:19:02.974Z,21.77
2023-02-12T21:21:34.500Z,19.95
2023-02-12T21:24:03.281Z,19.67
2023-02-12T21:26:32.463Z,18.17
2023-02-12T21:29:00.557Z,17.35
2023-02-12T21:31:29.699Z,15.48
2023-02-12T21:33:57.963Z,18.10
2023-02-12T21:36:27.703Z,17.02
2023-02-12T21:38:54.966Z,17.17
2023-02-12T21:41:24.414Z,17.88
2023-02-12T21:46:21.013Z,17.67
2023-02-12T21:48:47.863Z,17.38
2023-02-12T21:51:38.832Z,18.15
2023-02-12T21:54:08.164Z,17.58
2023-02-12T21:56:39.665Z,18.98
2023-02-12T21:59:06.207Z,20.30
2023-02-12T22:01:35.569Z,20.35
2023-02-12T22:04:04.141Z,20.63
2023-02-12T22:06:31.085Z,21.93
2023-02-12T22:09:02.308Z,24.25
2023-02-12T22:11:28.902Z,25.08
2023-02-12T22:13:55.329Z,25.30
2023-02-12T22:16:24.386Z,26.58
2023-02-12T22:18:56.840Z,25.45
2023-02-12T22:21:24.813Z,26.98
2023-02-12T22:23:51.662Z,27.65
2023-02-12T22:26:26.848Z,26.45
2023-02-12T22:28:55.374Z,29.55
2023-02-12T22:31:25.212Z,29.33
2023-02-12T22:33:54.550Z,28.20
2023-02-12T22:36:27.385Z,27.90
2023-02-12T22:38:55.542Z,25.80
2023-02-12T22:41:22.060Z,28.42
2023-02-12T22:43:48.554Z,27.50
2023-02-12T22:46:16.104Z,27.48
2023-02-12T22:48:43.240Z,29.45
2023-02-12T22:51:13.062Z,27.52
2023-02-12T22:53:39.524Z,25.98
2023-02-12T22:56:07.934Z,25.10
2023-02-12T22:58:34.703Z,28.58
2023-02-12T23:01:06.579Z,26.05
2023-02-12T23:03:33.745Z,27.77
2023-02-12T23:06:05.686Z,28.95
2023-02-12T23:08:32.342Z,25.58
2023-02-12T23:10:59.453Z,28.13
2023-02-12T23:13:29.839Z,29.35
2023-02-12T23:15:57.402Z,26.85
2023-02-12T23:18:25.043Z,29.25
2023-02-12T23:20:52.040Z,27.42
2023-02-12T23:23:20.127Z,27.48
2023-02-12T23:25:47.032Z,29.10
2023-02-12T23:28:13.778Z,28.70
2023-02-12T23:30:40.428Z,30.13
2023-02-12T23:33:06.905Z,28.35
2023-02-12T23:35:33.329Z,30.83
2023-02-12T23:38:00.108Z,28.20
2023-02-12T23:40:26.738Z,29.23
2023-02-12T23:42:53.180Z,31.08
2023-02-12T23:45:19.579Z,29.67
2023-02-12T23:47:46.057Z,29.55
2023-02-12T23:50:12.489Z,28.05
2023-02-12T23:52:39.055Z,28.70
2023-02-12T23:55:05.964Z,32.70
2023-02-12T23:57:32.479Z,31.85
2023-02-12T23:59:58.922Z,30.73
